createdAt,value
2018-12-17T00:02:15.352Z,12.70
2018-12-17T00:04:49.004Z,12.37
2018-12-17T00:07:22.581Z,13.20
2018-12-17T00:09:56.305Z,13.30
2018-12-17T00:12:30.547Z,12.47
2018-12-17T00:15:04.801Z,12.37
2018-12-17T00:17:38.399Z,11.43
2018-12-17T00:20:12.844Z,13.47
2018-12-17T00:22:46.609Z,12.43
2018-12-17T00:25:21.121Z,12.43
2018-12-17T00:27:55.795Z,13.07
2018-12-17T00:30:29.317Z,12.37
2018-12-17T00:33:03.148Z,10.77
2018-12-17T00:35:36.925Z,11.67
2018-12-17T00:38:10.599Z,9.13
2018-12-17T00:40:45.335Z,11.00
2018-12-17T00:43:18.872Z,10.47
2018-12-17T00:45:52.615Z,11.33
2018-12-17T00:48:26.520Z,11.73
2018-12-17T00:51:00.708Z,10.13
2018-12-17T00:53:35.231Z,10.60
2018-12-17T00:56:08.819Z,10.73
2018-12-17T00:58:45.396Z,11.30
2018-12-17T01:01:18.933Z,11.30
2018-12-17T01:03:53.345Z,10.63
2018-12-17T01:06:29.957Z,11.37
2018-12-17T01:09:04.208Z,10.73
2018-12-17T01:11:38.221Z,10.33
2018-12-17T01:14:11.864Z,9.87
2018-12-17T01:16:45.706Z,10.50
2018-12-17T01:19:19.388Z,10.57
2018-12-17T01:21:53.075Z,10.97
2018-12-17T01:24:27.633Z,9.43
2018-12-17T01:27:01.385Z,9.70
2018-12-17T01:29:35.227Z,10.73
2018-12-17T01:32:08.785Z,10.60
2018-12-17T01:34:42.364Z,10.73
2018-12-17T01:37:15.994Z,10.67
2018-12-17T01:39:49.606Z,9.97
2018-12-17T01:42:23.397Z,9.47
2018-12-17T01:45:00.062Z,10.40
2018-12-17T01:47:33.714Z,10.23
2018-12-17T01:50:07.415Z,11.47
2018-12-17T01:52:41.093Z,10.90
2018-12-17T01:55:14.713Z,11.10
2018-12-17T01:57:48.458Z,10.23
2018-12-17T02:00:22.254Z,12.13
2018-12-17T02:02:56.001Z,11.30
2018-12-17T02:05:30.878Z,10.20
2018-12-17T02:08:05.296Z,11.03
2018-12-17T02:10:39.956Z,10.80
2018-12-17T02:13:13.617Z,11.60
2018-12-17T02:15:47.376Z,10.50
2018-12-17T02:18:21.041Z,10.70
2018-12-17T02:20:54.795Z,10.93
2018-12-17T02:23:28.335Z,10.37
2018-12-17T02:25:58.728Z,10.63
2018-12-17T02:28:36.085Z,9.77
2018-12-17T02:31:08.617Z,10.43
2018-12-17T02:33:42.339Z,10.37
2018-12-17T02:36:15.908Z,11.10
2018-12-17T02:38:49.657Z,11.13
2018-12-17T02:41:23.357Z,10.37
2018-12-17T02:43:57.275Z,11.63
2018-12-17T02:46:30.850Z,11.73
2018-12-17T02:49:04.469Z,11.47
2018-12-17T02:51:36.866Z,11.57
2018-12-17T02:54:10.885Z,11.03
2018-12-17T02:56:41.152Z,10.67
2018-12-17T02:59:14.696Z,10.97
2018-12-17T03:01:48.543Z,9.53
2018-12-17T03:04:23.037Z,11.23
2018-12-17T03:06:56.730Z,10.67
2018-12-17T03:09:33.641Z,10.67
2018-12-17T03:12:03.314Z,10.37
2018-12-17T03:14:33.777Z,10.07
2018-12-17T03:17:07.665Z,10.10
2018-12-17T03:19:37.292Z,11.20
2018-12-17T03:22:11.821Z,11.97
2018-12-17T03:24:45.557Z,11.27
2018-12-17T03:27:20.052Z,12.53
2018-12-17T03:29:54.586Z,10.60
2018-12-17T03:32:28.143Z,11.13
2018-12-17T03:35:01.888Z,10.83
2018-12-17T03:37:35.538Z,11.23
2018-12-17T03:40:09.471Z,10.20
2018-12-17T03:42:43.173Z,11.47
2018-12-17T03:45:16.982Z,10.20
2018-12-17T03:47:50.713Z,12.50
2018-12-17T03:50:24.252Z,12.50
2018-12-17T03:52:58.474Z,11.37
2018-12-17T03:55:32.712Z,10.97
2018-12-17T03:58:02.346Z,10.40
2018-12-17T04:00:36.087Z,11.30
2018-12-17T04:03:10.869Z,10.80
2018-12-17T04:05:45.385Z,11.20
2018-12-17T04:08:19.281Z,11.03
2018-12-17T04:10:52.925Z,11.60
2018-12-17T04:13:26.589Z,11.07
2018-12-17T04:16:00.370Z,11.63
2018-12-17T04:18:35.814Z,10.50
2018-12-17T04:21:09.567Z,9.97
2018-12-17T04:23:44.258Z,10.77
2018-12-17T04:26:17.921Z,9.83
2018-12-17T04:28:47.602Z,10.47
2018-12-17T04:31:21.193Z,10.70
2018-12-17T04:33:51.612Z,8.53
2018-12-17T04:36:25.281Z,10.43
2018-12-17T04:38:59.833Z,9.53
2018-12-17T04:41:33.499Z,10.07
2018-12-17T04:44:07.073Z,9.90
2018-12-17T04:46:41.062Z,9.10
2018-12-17T04:49:14.996Z,9.20
2018-12-17T04:51:48.943Z,9.53
2018-12-17T04:54:22.514Z,8.47
2018-12-17T04:56:56.282Z,9.90
2018-12-17T04:59:30.221Z,8.50
2018-12-17T05:02:05.487Z,8.40
2018-12-17T05:04:39.733Z,9.87
2018-12-17T05:07:13.271Z,9.37
2018-12-17T05:09:47.037Z,9.93
2018-12-17T05:12:20.577Z,8.90
2018-12-17T05:14:54.213Z,10.20
2018-12-17T05:17:27.920Z,9.27
2018-12-17T05:20:01.545Z,8.50
2018-12-17T05:22:36.285Z,7.80
2018-12-17T05:25:05.973Z,8.27
2018-12-17T05:27:36.323Z,8.40
2018-12-17T05:30:10.776Z,8.00
2018-12-17T05:32:44.647Z,8.07
2018-12-17T05:35:18.423Z,9.40
2018-12-17T05:37:51.980Z,8.23
2018-12-17T05:40:26.659Z,8.40
2018-12-17T05:43:00.292Z,7.20
2018-12-17T05:45:34.798Z,7.80
2018-12-17T05:48:08.573Z,7.70
2018-12-17T05:50:42.248Z,7.97
2018-12-17T05:53:16.005Z,7.50
2018-12-17T05:55:49.726Z,7.97
2018-12-17T05:58:23.528Z,7.73
2018-12-17T06:00:57.256Z,7.33
2018-12-17T06:03:31.013Z,7.23
2018-12-17T06:06:04.838Z,6.93
2018-12-17T06:08:38.466Z,8.00
2018-12-17T06:11:12.033Z,7.50
2018-12-17T06:13:45.849Z,7.90
2018-12-17T06:16:19.589Z,8.60
2018-12-17T06:18:53.374Z,7.60
2018-12-17T06:21:26.949Z,7.50
2018-12-17T06:24:00.685Z,6.70
2018-12-17T06:26:34.533Z,6.37
2018-12-17T06:29:05.047Z,6.43
2018-12-17T06:31:38.665Z,7.30
2018-12-17T06:34:12.427Z,6.77
2018-12-17T06:36:46.185Z,6.07
2018-12-17T06:39:19.886Z,6.40
2018-12-17T06:41:53.619Z,6.13
2018-12-17T06:44:27.252Z,6.20
2018-12-17T06:47:01.097Z,6.63
2018-12-17T06:49:34.843Z,6.20
2018-12-17T06:52:08.545Z,5.40
2018-12-17T06:54:42.187Z,6.20
2018-12-17T06:57:19.409Z,5.23
2018-12-17T06:59:53.499Z,6.17
2018-12-17T07:02:27.245Z,5.90
2018-12-17T07:05:00.925Z,5.37
2018-12-17T07:07:34.567Z,4.90
2018-12-17T07:10:08.253Z,5.67
2018-12-17T07:12:41.813Z,5.03
2018-12-17T07:15:15.370Z,5.73
2018-12-17T07:17:48.976Z,5.60
2018-12-17T07:20:23.413Z,5.17
2018-12-17T07:22:57.208Z,5.40
2018-12-17T07:25:31.626Z,6.77
2018-12-17T07:28:05.508Z,4.80
2018-12-17T07:30:40.224Z,5.13
2018-12-17T07:33:13.926Z,4.43
2018-12-17T07:35:47.526Z,5.30
2018-12-17T07:38:21.196Z,4.40
2018-12-17T07:40:54.767Z,5.00
2018-12-17T07:43:28.528Z,5.43
2018-12-17T07:46:02.256Z,4.67
2018-12-17T07:48:36.776Z,5.13
2018-12-17T07:51:10.333Z,5.27
2018-12-17T07:53:39.977Z,4.87
2018-12-17T07:56:13.533Z,5.10
2018-12-17T07:58:47.236Z,5.50
2018-12-17T08:01:20.780Z,5.17
2018-12-17T08:03:55.416Z,4.90
2018-12-17T08:06:29.152Z,4.77
2018-12-17T08:09:04.801Z,4.70
2018-12-17T08:11:38.744Z,5.40
2018-12-17T08:14:12.826Z,4.40
2018-12-17T08:16:46.390Z,5.33
2018-12-17T08:19:20.007Z,5.00
2018-12-17T08:21:53.862Z,4.77
2018-12-17T08:24:28.683Z,5.10
2018-12-17T08:27:03.117Z,5.93
2018-12-17T08:29:36.783Z,4.90
2018-12-17T08:32:10.691Z,6.33
2018-12-17T08:34:44.429Z,4.77
2018-12-17T08:37:18.029Z,5.00
2018-12-17T08:39:51.692Z,5.27
2018-12-17T08:42:25.417Z,3.83
2018-12-17T08:44:59.029Z,4.93
2018-12-17T08:47:29.506Z,3.47
2018-12-17T08:50:04.354Z,3.17
2018-12-17T08:52:39.772Z,4.40
2018-12-17T08:55:09.378Z,4.77
2018-12-17T08:57:46.032Z,3.47
2018-12-17T09:00:19.613Z,4.50
2018-12-17T09:02:53.263Z,3.40
2018-12-17T09:05:27.032Z,5.27
2018-12-17T09:07:56.710Z,5.23
2018-12-17T09:10:30.337Z,5.50
2018-12-17T09:13:04.061Z,3.70
2018-12-17T09:15:34.486Z,4.93
2018-12-17T09:18:08.112Z,4.03
2018-12-17T09:20:37.853Z,2.90
2018-12-17T09:23:11.545Z,3.00
2018-12-17T09:25:48.123Z,3.20
2018-12-17T09:28:22.190Z,2.60
2018-12-17T09:30:52.701Z,3.27
2018-12-17T09:33:26.390Z,3.50
2018-12-17T09:36:00.034Z,4.30
2018-12-17T09:38:33.674Z,3.53
2018-12-17T09:41:07.969Z,7.63
2018-12-17T09:43:38.107Z,2.80
2018-12-17T09:46:04.713Z,3.20
2018-12-17T09:48:35.113Z,4.20
2018-12-17T09:51:08.669Z,3.47
2018-12-17T09:53:42.305Z,4.13
2018-12-17T09:56:16.090Z,5.27
2018-12-17T09:58:49.852Z,4.10
2018-12-17T10:01:23.400Z,3.93
2018-12-17T10:03:57.038Z,5.83
2018-12-17T10:06:31.496Z,4.67
2018-12-17T10:09:05.906Z,4.90
2018-12-17T10:11:39.724Z,3.87
2018-12-17T10:30:12.551Z,13.87
2018-12-17T10:32:40.284Z,16.83
2018-12-17T10:35:07.504Z,15.97
2018-12-17T10:37:34.161Z,17.97
2018-12-17T10:40:00.781Z,16.03
2018-12-17T10:42:29.578Z,19.37
2018-12-17T10:44:56.185Z,20.20
2018-12-17T10:47:22.844Z,15.37
2018-12-17T10:49:50.277Z,19.07
2018-12-17T10:52:16.973Z,16.97
2018-12-17T10:54:43.616Z,18.33
2018-12-17T10:57:10.248Z,21.03
2018-12-17T10:59:36.901Z,14.97
2018-12-17T11:02:05.485Z,19.60
2018-12-17T11:04:35.284Z,14.97
2018-12-17T11:07:03.861Z,12.80
2018-12-17T11:09:30.492Z,12.97
2018-12-17T11:11:57.825Z,8.00
2018-12-17T11:14:24.480Z,13.37
2018-12-17T11:16:51.132Z,11.47
2018-12-17T11:19:17.745Z,8.30
2018-12-17T11:21:44.380Z,11.17
2018-12-17T11:24:11.378Z,11.77
2018-12-17T11:26:38.027Z,11.73
2018-12-17T11:29:04.655Z,9.23
2018-12-17T11:31:31.286Z,7.73
2018-12-17T11:33:57.925Z,13.07
2018-12-17T11:36:24.562Z,14.07
2018-12-17T11:38:51.235Z,10.13
2018-12-17T11:41:17.881Z,11.43
2018-12-17T11:43:44.531Z,12.90
2018-12-17T11:46:15.441Z,11.53
2018-12-17T11:48:43.998Z,11.27
2018-12-17T11:51:11.021Z,9.70
2018-12-17T11:53:40.757Z,7.70
2018-12-17T11:56:07.354Z,9.87
2018-12-17T11:58:33.985Z,11.80
2018-12-17T12:01:01.845Z,9.37
2018-12-17T12:03:28.512Z,8.60
2018-12-17T12:05:55.104Z,12.43
2018-12-17T12:08:21.752Z,10.47
2018-12-17T12:10:55.550Z,11.00
2018-12-17T12:13:22.193Z,8.43
2018-12-17T12:15:56.049Z,9.23
2018-12-17T12:18:22.677Z,10.93
2018-12-17T12:20:49.349Z,10.37
2018-12-17T12:23:24.220Z,12.73
2018-12-17T12:25:53.953Z,6.73
2018-12-17T12:28:28.193Z,9.83
2018-12-17T12:31:05.460Z,7.77
2018-12-17T12:33:32.073Z,7.73
2018-12-17T12:35:58.700Z,9.30
2018-12-17T12:38:32.609Z,12.33
2018-12-17T12:40:59.248Z,7.83
2018-12-17T12:43:25.881Z,14.07
2018-12-17T12:45:52.510Z,12.00
2018-12-17T12:48:19.122Z,13.00
2018-12-17T12:50:45.765Z,11.77
2018-12-17T12:53:12.369Z,11.17
2018-12-17T12:55:39.062Z,8.57
2018-12-17T12:58:13.083Z,9.57
2018-12-17T13:00:39.727Z,5.87
2018-12-17T13:03:06.367Z,10.10
2018-12-17T13:05:32.985Z,11.60
2018-12-17T13:08:02.625Z,9.37
2018-12-17T13:10:29.243Z,15.15
2018-12-17T13:12:56.037Z,10.93
2018-12-17T13:15:22.663Z,11.80
2018-12-17T13:17:49.261Z,5.70
2018-12-17T13:20:15.893Z,10.93
2018-12-17T13:22:42.547Z,12.37
2018-12-17T13:25:11.110Z,12.83
2018-12-17T13:27:37.761Z,22.13
2018-12-17T13:30:19.813Z,12.67
2018-12-17T13:32:53.695Z,7.57
2018-12-17T13:35:20.302Z,9.67
2018-12-17T13:37:46.920Z,15.90
2018-12-17T13:40:13.553Z,8.63
2018-12-17T13:42:40.209Z,16.90
2018-12-17T13:45:08.806Z,7.03
2018-12-17T13:47:35.412Z,8.17
2018-12-17T13:50:04.077Z,7.83
2018-12-17T13:52:48.468Z,8.50
2018-12-17T13:55:15.699Z,8.33
2018-12-17T13:57:43.236Z,7.80
2018-12-17T14:00:09.901Z,5.63
2018-12-17T14:02:38.129Z,11.67
2018-12-17T14:05:04.770Z,15.30
2018-12-17T14:07:45.697Z,13.83
2018-12-17T14:13:21.366Z,9.23
2018-12-17T14:15:52.717Z,14.13
2018-12-17T14:18:25.438Z,8.60
2018-12-17T14:20:58.515Z,9.00
2018-12-17T14:23:32.553Z,9.60
2018-12-17T14:26:01.049Z,11.43
2018-12-17T14:28:27.698Z,8.40
2018-12-17T14:31:15.025Z,15.33
2018-12-17T14:33:41.670Z,12.57
2018-12-17T14:36:10.213Z,12.57
2018-12-17T14:38:39.872Z,13.13
2018-12-17T14:41:06.465Z,6.90
2018-12-17T14:43:33.082Z,12.73
2018-12-17T14:45:59.729Z,11.03
2018-12-17T14:48:26.368Z,12.67
2018-12-17T14:50:53.037Z,7.93
2018-12-17T14:53:19.665Z,9.10
2018-12-17T14:55:46.293Z,9.47
2018-12-17T14:58:12.923Z,10.30
2018-12-17T15:00:39.553Z,12.53
2018-12-17T15:03:06.217Z,10.53
2018-12-17T15:05:32.850Z,16.47
2018-12-17T15:07:59.461Z,12.83
2018-12-17T15:10:26.075Z,8.37
2018-12-17T15:12:52.691Z,12.80
2018-12-17T15:15:19.332Z,13.47
2018-12-17T15:17:45.964Z,17.60
2018-12-17T15:20:14.560Z,8.87
2018-12-17T15:22:41.165Z,11.83
2018-12-17T15:25:08.903Z,8.60
2018-12-17T15:27:38.124Z,11.57
2018-12-17T15:30:04.855Z,15.87
2018-12-17T15:32:31.478Z,15.23
2018-12-17T15:34:58.095Z,14.77
2018-12-17T15:37:27.625Z,11.90
2018-12-17T15:39:54.253Z,11.30
2018-12-17T15:42:21.975Z,11.80
2018-12-17T15:44:56.972Z,13.77
2018-12-17T15:47:23.631Z,13.67
2018-12-17T15:49:50.293Z,17.93
2018-12-17T15:52:16.900Z,12.23
2018-12-17T15:54:43.544Z,8.70
2018-12-17T15:57:10.145Z,13.10
2018-12-17T15:59:40.254Z,18.07
2018-12-17T16:02:13.905Z,15.87
2018-12-17T16:04:40.533Z,12.30
2018-12-17T16:07:07.207Z,13.70
2018-12-17T16:09:34.328Z,18.23
2018-12-17T16:12:00.965Z,13.43
2018-12-17T16:14:27.629Z,14.10
2018-12-17T16:16:54.268Z,15.97
2018-12-17T16:19:20.874Z,11.63
2018-12-17T16:21:47.516Z,10.60
2018-12-17T16:24:14.161Z,14.77
2018-12-17T16:26:40.774Z,10.93
2018-12-17T16:29:14.702Z,10.90
2018-12-17T16:31:41.401Z,11.10
2018-12-17T16:34:09.802Z,14.17
2018-12-17T16:36:38.379Z,19.37
2018-12-17T16:39:05.261Z,10.80
2018-12-17T16:41:40.632Z,13.10
2018-12-17T16:44:10.501Z,11.77
2018-12-17T16:46:37.131Z,14.27
2018-12-17T16:49:03.799Z,9.47
2018-12-17T16:51:30.455Z,18.07
2018-12-17T16:53:57.073Z,12.63
2018-12-17T16:56:30.950Z,10.57
2018-12-17T16:58:57.681Z,9.07
2018-12-17T17:01:27.825Z,13.37
2018-12-17T17:03:54.456Z,15.70
2018-12-17T17:06:21.065Z,11.97
2018-12-17T17:08:47.684Z,14.77
2018-12-17T17:11:14.330Z,11.97
2018-12-17T17:13:40.957Z,19.17
2018-12-17T17:16:08.604Z,10.97
2018-12-17T17:18:35.317Z,11.30
2018-12-17T17:21:01.950Z,9.17
2018-12-17T17:23:31.965Z,12.30
2018-12-17T17:25:59.315Z,10.50
2018-12-17T17:28:25.943Z,12.53
2018-12-17T17:30:52.659Z,14.23
2018-12-17T17:33:27.085Z,10.77
2018-12-17T17:35:53.715Z,17.07
2018-12-17T17:38:20.434Z,8.90
2018-12-17T17:40:47.052Z,14.17
2018-12-17T17:43:14.516Z,11.50
2018-12-17T17:45:41.164Z,9.50
2018-12-17T17:48:07.782Z,6.20
2018-12-17T17:50:34.412Z,19.00
2018-12-17T17:53:01.060Z,10.87
2018-12-17T17:55:27.712Z,10.33
2018-12-17T17:57:57.640Z,10.43
2018-12-17T18:00:45.491Z,11.83
2018-12-17T18:03:20.555Z,19.00
2018-12-17T18:05:54.180Z,13.97
2018-12-17T18:08:28.912Z,15.33
2018-12-17T18:10:55.518Z,16.00
2018-12-17T18:13:25.814Z,19.07
2018-12-17T18:15:52.447Z,12.57
2018-12-17T18:18:19.074Z,12.07
2018-12-17T18:20:45.689Z,13.97
2018-12-17T18:23:12.321Z,12.67
2018-12-17T18:25:38.938Z,15.77
2018-12-17T18:28:06.912Z,14.90
2018-12-17T18:30:34.049Z,13.63
2018-12-17T18:33:00.666Z,12.80
2018-12-17T18:35:27.370Z,14.07
2018-12-17T18:37:57.113Z,23.30
2018-12-17T18:40:30.991Z,10.53
2018-12-17T18:42:57.690Z,11.17
2018-12-17T18:45:24.294Z,16.37
2018-12-17T18:47:50.910Z,19.70
2018-12-17T18:50:17.560Z,15.17
2018-12-17T18:52:51.684Z,20.27
2018-12-17T18:55:19.322Z,16.47
2018-12-17T18:57:45.957Z,15.70
2018-12-17T19:00:12.745Z,14.83
2018-12-17T19:02:39.417Z,16.70
2018-12-17T19:05:20.129Z,19.23
2018-12-17T19:07:46.773Z,13.83
2018-12-17T19:10:16.965Z,21.77
2018-12-17T19:12:47.223Z,18.33
2018-12-17T19:15:16.887Z,20.57
2018-12-17T19:17:51.840Z,21.93
2018-12-17T19:20:35.208Z,15.27
2018-12-17T19:23:01.861Z,12.90
2018-12-17T19:25:32.502Z,17.63
2018-12-17T19:27:59.146Z,20.37
2018-12-17T19:30:27.161Z,14.60
2018-12-17T19:32:57.009Z,29.43
2018-12-17T19:35:26.825Z,24.27
2018-12-17T19:37:56.629Z,29.40
2018-12-17T19:40:23.253Z,24.63
2018-12-17T19:42:50.618Z,34.63
2018-12-17T19:45:18.693Z,23.30
2018-12-17T19:47:52.711Z,17.37
2018-12-17T19:50:19.365Z,28.77
2018-12-17T19:52:47.696Z,32.73
2018-12-17T19:55:14.333Z,21.30
2018-12-17T19:57:40.964Z,20.40
2018-12-17T20:00:08.044Z,23.63
2018-12-17T20:02:35.608Z,26.33
2018-12-17T20:05:02.209Z,32.10
2018-12-17T20:07:28.838Z,22.90
2018-12-17T20:09:55.477Z,34.67
2018-12-17T20:12:22.099Z,40.97
2018-12-17T20:14:48.763Z,38.37
2018-12-17T20:17:15.386Z,32.13
2018-12-17T20:19:42.017Z,31.73
2018-12-17T20:22:11.529Z,37.63
2018-12-17T20:24:45.288Z,30.90
2018-12-17T20:27:11.946Z,30.00
2018-12-17T20:29:38.551Z,33.27
2018-12-17T20:32:05.169Z,28.03
2018-12-17T20:34:35.211Z,33.13
2018-12-17T20:37:01.849Z,20.73
2018-12-17T20:39:28.460Z,19.27
2018-12-17T20:41:55.124Z,23.63
2018-12-17T20:44:28.766Z,22.37
2018-12-17T20:47:02.420Z,21.47
2018-12-17T20:49:29.081Z,31.73
2018-12-17T20:51:58.936Z,24.57
2018-12-17T20:54:32.781Z,23.17
2018-12-17T20:56:59.390Z,25.63
2018-12-17T20:59:29.210Z,23.30
2018-12-17T21:01:59.394Z,40.37
2018-12-17T21:04:27.345Z,26.57
2018-12-17T21:06:53.956Z,22.67
2018-12-17T21:09:20.584Z,23.63
2018-12-17T21:11:47.192Z,33.43
2018-12-17T21:14:13.845Z,37.87
2018-12-17T21:16:43.541Z,28.23
2018-12-17T21:19:17.136Z,30.17
2018-12-17T21:21:47.055Z,29.20
2018-12-17T21:24:13.683Z,23.93
2018-12-17T21:26:41.641Z,33.10
2018-12-17T21:29:08.292Z,30.10
2018-12-17T21:31:34.939Z,34.73
2018-12-17T21:34:03.433Z,38.83
2018-12-17T21:36:47.081Z,30.40
2018-12-17T21:39:13.717Z,32.03
2018-12-17T21:41:47.625Z,31.10
2018-12-17T21:44:14.250Z,26.07
2018-12-17T21:46:40.870Z,22.50
2018-12-17T21:49:07.505Z,31.00
2018-12-17T21:51:34.137Z,28.23
2018-12-17T21:54:02.342Z,27.43
2018-12-17T21:56:28.979Z,26.63
2018-12-17T21:59:04.325Z,40.07
2018-12-17T22:01:38.277Z,33.70
2018-12-17T22:04:21.712Z,22.67
2018-12-17T22:06:48.391Z,24.83
2018-12-17T22:09:15.002Z,24.93
2018-12-17T22:11:43.048Z,28.03
2018-12-17T22:14:09.759Z,22.87
2018-12-17T22:16:36.431Z,30.13
2018-12-17T22:19:03.084Z,24.63
2018-12-17T22:21:29.718Z,23.73
2018-12-17T22:23:56.377Z,21.73
2018-12-17T22:26:29.058Z,28.90
2018-12-17T22:28:51.600Z,30.90
2018-12-17T22:31:18.257Z,29.80
2018-12-17T22:33:44.883Z,29.73
2018-12-17T22:36:11.496Z,36.47
2018-12-17T22:38:38.152Z,34.97
2018-12-17T22:41:04.796Z,28.23
2018-12-17T22:43:31.437Z,28.17
2018-12-17T22:45:58.075Z,31.87
2018-12-17T22:48:24.696Z,34.30
2018-12-17T22:51:00.136Z,39.10
2018-12-17T22:53:26.768Z,36.00
2018-12-17T22:55:53.401Z,35.87
2018-12-17T22:58:20.010Z,40.53
2018-12-17T23:00:46.649Z,29.23
2018-12-17T23:03:13.291Z,41.03
2018-12-17T23:05:40.018Z,34.97
2018-12-17T23:08:06.653Z,34.20
2018-12-17T23:10:49.665Z,38.77
2018-12-17T23:13:22.040Z,48.83
2018-12-17T23:15:54.590Z,57.60
2018-12-17T23:18:28.026Z,50.83
2018-12-17T23:21:02.007Z,47.87
2018-12-17T23:23:35.869Z,61.53
2018-12-17T23:26:02.486Z,54.37
2018-12-17T23:28:29.107Z,58.37
2018-12-17T23:30:55.742Z,51.97
2018-12-17T23:33:32.848Z,47.00
2018-12-17T23:35:57.916Z,52.07
2018-12-17T23:38:24.521Z,50.20
2018-12-17T23:40:58.516Z,48.73
2018-12-17T23:43:25.124Z,60.60
2018-12-17T23:45:51.746Z,64.97
2018-12-17T23:48:18.381Z,60.97
2018-12-17T23:50:45.031Z,62.27
2018-12-17T23:53:11.635Z,66.23
2018-12-17T23:55:38.263Z,66.60
2018-12-17T23:58:04.912Z,56.10
